Time;durP1;ratioP1;P1;durP2;ratioP2;P2;SDS_P1;SDS_P2;PMS_P1;PMS_P2;Temp;Humidity;BMP_temperature;BMP_pressure;BME280_temperature;BME280_humidity;BME280_pressure;Samples;Min_cycle;Max_cycle;Signal;HPM_P1;HPM_P2
2022/04/09 00:00:35;;;;;;;13.85;5.47;;;;;;;5.55;100.00;99986.74;1570034;89;21160;-79
2022/04/09 00:03:03;;;;;;;18.27;5.58;;;;;;;5.59;100.00;99990.77;1575751;89;21267;-84
2022/04/09 00:05:30;;;;;;;25.90;5.17;;;;;;;5.63;100.00;99987.08;1575228;89;21137;-83
2022/04/09 00:07:59;;;;;;;18.25;5.67;;;;;;;5.68;100.00;99975.98;1576117;89;21046;-80
2022/04/09 00:10:26;;;;;;;14.47;5.40;;;;;;;5.71;100.00;99975.42;1576249;91;21165;-77
2022/04/09 00:12:54;;;;;;;6.75;5.03;;;;;;;5.75;100.00;99977.70;1575674;89;21611;-86
2022/04/09 00:15:21;;;;;;;5.85;4.97;;;;;;;5.77;100.00;99979.70;1576537;88;21548;-79
2022/04/09 00:17:50;;;;;;;6.55;5.22;;;;;;;5.80;100.00;99991.14;1578649;90;21551;-77
2022/04/09 00:20:19;;;;;;;6.67;5.25;;;;;;;5.82;100.00;99994.91;1577994;89;21618;-78
2022/04/09 00:22:48;;;;;;;5.72;5.10;;;;;;;5.77;100.00;100000.85;1578069;89;21065;-78
2022/04/09 00:25:21;;;;;;;8.05;4.87;;;;;;;5.66;100.00;99995.09;1577997;89;21140;-77
2022/04/09 00:27:45;;;;;;;7.67;5.50;;;;;;;5.56;100.00;99994.86;1576258;90;21167;-77
2022/04/09 00:30:12;;;;;;;6.20;5.58;;;;;;;5.50;100.00;99992.20;1578429;90;21128;-77
2022/04/09 00:32:41;;;;;;;6.53;5.00;;;;;;;5.41;100.00;99990.67;1578626;89;21035;-76
2022/04/09 00:35:09;;;;;;;6.72;5.55;;;;;;;5.32;100.00;99995.50;1578682;89;21579;-77
2022/04/09 00:37:47;;;;;;;5.62;5.08;;;;;;;5.23;100.00;99998.65;1603827;89;21097;-76
2022/04/09 00:40:20;;;;;;;6.75;4.83;;;;;;;5.18;100.00;99995.51;1603420;88;21187;-78
2022/04/09 00:42:48;;;;;;;6.60;5.08;;;;;;;5.19;100.00;99994.59;1602793;89;21069;-78
2022/04/09 00:45:15;;;;;;;6.42;5.08;;;;;;;5.20;100.00;100002.26;1603350;89;21004;-78
2022/04/09 00:47:44;;;;;;;5.80;5.22;;;;;;;5.19;100.00;99996.72;1603600;89;21074;-77
2022/04/09 00:50:12;;;;;;;5.95;5.00;;;;;;;5.20;100.00;99995.80;1603209;89;21089;-77
2022/04/09 00:52:49;;;;;;;7.35;5.50;;;;;;;5.22;100.00;99993.12;1602846;89;21828;-77
2022/04/09 00:56:12;;;;;;;7.00;5.65;;;;;;;5.23;100.00;99988.33;1599826;89;21152;-80
2022/04/09 00:57:51;;;;;;;6.78;6.08;;;;;;;5.21;100.00;99990.17;1599867;89;21102;-76
2022/04/09 01:00:20;;;;;;;8.45;6.55;;;;;;;5.16;100.00;99996.09;1603381;88;21350;-78
2022/04/09 01:02:48;;;;;;;6.95;6.25;;;;;;;5.11;100.00;99993.79;1602612;89;21109;-80
2022/04/09 01:05:16;;;;;;;6.47;5.78;;;;;;;5.10;100.00;100002.90;1603201;89;21706;-77
2022/04/09 01:07:44;;;;;;;7.45;6.53;;;;;;;5.08;100.00;100003.00;1603157;89;21054;-76
2022/04/09 01:10:13;;;;;;;5.55;5.00;;;;;;;5.03;100.00;100000.70;1599783;88;21578;-76
2022/04/09 01:12:41;;;;;;;6.17;5.35;;;;;;;5.00;100.00;100012.52;1604779;88;21713;-79
2022/04/09 01:15:10;;;;;;;6.30;5.53;;;;;;;4.97;100.00;100015.28;1603930;89;21124;-81
2022/04/09 01:17:38;;;;;;;6.17;5.58;;;;;;;4.90;100.00;100012.71;1603478;89;21973;-81
2022/04/09 01:20:26;;;;;;;6.70;6.00;;;;;;;4.82;100.00;100019.61;1603486;89;21743;-77
2022/04/09 01:22:54;;;;;;;9.25;7.85;;;;;;;4.73;100.00;100019.72;1603581;89;21619;-80
2022/04/09 01:25:22;;;;;;;9.20;7.92;;;;;;;4.64;100.00;100025.90;1603255;89;21078;-77
2022/04/09 01:27:51;;;;;;;11.15;8.75;;;;;;;4.56;100.00;100030.20;1604232;88;21642;-79
2022/04/09 01:30:19;;;;;;;10.88;8.53;;;;;;;4.49;100.00;100028.92;1609168;88;21645;-77
2022/04/09 01:32:47;;;;;;;11.18;8.65;;;;;;;4.40;100.00;100032.88;1618674;87;21113;-76
2022/04/09 01:35:16;;;;;;;9.85;7.87;;;;;;;4.33;100.00;100035.42;1600201;88;21003;-80
2022/04/09 01:37:45;;;;;;;9.53;7.30;;;;;;;4.26;100.00;100049.14;1603526;89;21047;-76
2022/04/09 01:40:12;;;;;;;7.97;7.17;;;;;;;4.25;100.00;100057.78;1603344;89;21062;-76
2022/04/09 01:42:43;;;;;;;9.55;7.97;;;;;;;4.24;100.00;100063.41;1599910;89;21441;-76
2022/04/09 01:45:10;;;;;;;8.45;7.12;;;;;;;4.22;100.00;100061.81;1603653;89;21055;-77
2022/04/09 01:47:42;;;;;;;9.70;7.65;;;;;;;4.16;100.00;100056.58;1603763;89;21059;-77
2022/04/09 01:50:08;;;;;;;9.28;7.20;;;;;;;4.07;100.00;100054.05;1599483;89;21146;-76
2022/04/09 01:52:37;;;;;;;10.08;8.35;;;;;;;3.97;100.00;100054.19;1603598;89;21073;-80
2022/04/09 01:55:06;;;;;;;10.32;7.80;;;;;;;3.84;100.00;100058.38;1603413;89;21277;-77
2022/04/09 01:57:34;;;;;;;9.40;7.05;;;;;;;3.71;100.00;100064.23;1603459;89;21114;-81
2022/04/09 02:00:08;;;;;;;8.03;6.75;;;;;;;3.63;100.00;100071.55;1577235;89;21599;-79
2022/04/09 02:02:37;;;;;;;9.03;7.22;;;;;;;3.53;100.00;100072.95;1599428;89;21051;-77
2022/04/09 02:05:06;;;;;;;7.70;6.90;;;;;;;3.45;100.00;100079.34;1603598;89;21165;-80
2022/04/09 02:07:35;;;;;;;9.13;6.92;;;;;;;3.37;100.00;100082.80;1603296;89;21263;-77
2022/04/09 02:10:05;;;;;;;8.78;7.35;;;;;;;3.32;100.00;100086.08;1602916;88;21043;-79
2022/04/09 02:12:36;;;;;;;9.05;7.80;;;;;;;3.29;100.00;100088.80;1603610;89;21891;-78
2022/04/09 02:15:10;;;;;;;10.25;8.13;;;;;;;3.24;100.00;100094.19;1603480;89;21130;-86
2022/04/09 02:17:38;;;;;;;10.30;8.50;;;;;;;3.21;100.00;100097.38;1603679;89;21067;-78
2022/04/09 02:20:09;;;;;;;9.75;7.03;;;;;;;3.15;100.00;100102.39;1603155;89;21822;-77
2022/04/09 02:22:41;;;;;;;8.15;7.30;;;;;;;3.07;100.00;100109.23;1603473;89;21094;-77
2022/04/09 02:25:11;;;;;;;8.57;7.13;;;;;;;3.02;100.00;100108.63;1603278;89;21189;-77
2022/04/09 02:27:39;;;;;;;8.60;7.40;;;;;;;2.97;100.00;100113.19;1603413;89;26746;-84
2022/04/09 02:30:09;;;;;;;8.55;7.55;;;;;;;2.92;100.00;100117.28;1603456;89;21079;-79
2022/04/09 02:32:51;;;;;;;10.53;9.15;;;;;;;2.89;100.00;100114.85;1599486;89;21070;-77
2022/04/09 02:35:22;;;;;;;11.30;9.18;;;;;;;2.87;100.00;100126.13;1599034;89;21553;-77
2022/04/09 02:37:52;;;;;;;13.78;10.43;;;;;;;2.78;100.00;100121.83;1603116;89;21747;-77
2022/04/09 02:40:20;;;;;;;13.00;10.30;;;;;;;2.64;100.00;100119.13;1571912;90;21089;-76
2022/04/09 02:42:47;;;;;;;12.60;9.43;;;;;;;2.59;100.00;100123.67;1578510;90;21106;-77
2022/04/09 02:45:15;;;;;;;13.28;9.65;;;;;;;2.59;100.00;100123.67;1586749;89;21177;-77
2022/04/09 02:47:43;;;;;;;14.87;9.73;;;;;;;2.53;100.00;100128.19;1606108;89;21128;-76
2022/04/09 02:50:14;;;;;;;10.65;9.13;;;;;;;2.53;100.00;100128.19;1599663;89;21106;-76
2022/04/09 02:52:43;;;;;;;12.28;9.25;;;;;;;2.48;100.00;100125.03;1602240;89;21003;-77
2022/04/09 02:55:14;;;;;;;15.35;10.38;;;;;;;2.45;100.00;100133.34;1603060;89;21730;-76
2022/04/09 02:57:42;;;;;;;16.65;9.50;;;;;;;2.45;100.00;100123.88;1603440;89;21913;-83
2022/04/09 03:00:13;;;;;;;17.77;9.83;;;;;;;2.45;100.00;100123.88;1603759;89;21074;-77
2022/04/09 03:02:41;;;;;;;14.98;9.20;;;;;;;2.45;100.00;100120.49;1603371;89;21827;-78
2022/04/09 03:05:13;;;;;;;13.65;9.00;;;;;;;2.42;100.00;100124.05;1599258;89;21118;-78
2022/04/09 03:07:41;;;;;;;12.90;9.15;;;;;;;2.43;100.00;100124.87;1603648;89;21090;-77
2022/04/09 03:10:09;;;;;;;17.27;10.18;;;;;;;2.46;100.00;100128.12;1602810;89;21266;-81
2022/04/09 03:12:46;;;;;;;14.13;10.00;;;;;;;2.52;100.00;100131.66;1603508;89;21630;-77
2022/04/09 03:15:17;;;;;;;13.32;10.08;;;;;;;2.59;100.00;100145.06;1603409;89;21075;-76
2022/04/09 03:17:46;;;;;;;17.70;11.00;;;;;;;2.65;100.00;100145.22;1603664;89;21098;-78
2022/04/09 03:20:16;;;;;;;14.17;9.70;;;;;;;2.70;100.00;100145.81;1603446;89;21658;-77
2022/04/09 03:22:45;;;;;;;15.28;10.13;;;;;;;2.78;100.00;100146.73;1603383;89;21848;-77
2022/04/09 03:25:14;;;;;;;17.60;11.43;;;;;;;2.87;100.00;100150.56;1577458;89;21058;-77
2022/04/09 03:27:42;;;;;;;17.35;11.05;;;;;;;2.93;100.00;100148.52;1603088;89;21038;-78
2022/04/09 03:30:12;;;;;;;16.57;11.75;;;;;;;2.92;100.00;100157.14;1603595;89;21648;-78
2022/04/09 03:32:41;;;;;;;15.72;11.25;;;;;;;2.92;100.00;100157.14;1603456;89;21165;-76
2022/04/09 03:35:13;;;;;;;16.52;11.30;;;;;;;2.93;100.00;100165.68;1604520;88;21271;-79
2022/04/09 03:37:44;;;;;;;15.18;11.05;;;;;;;2.91;100.00;100167.52;1602997;89;21114;-77
2022/04/09 03:40:13;;;;;;;16.93;10.65;;;;;;;2.90;100.00;100163.28;1603360;88;21584;-77
2022/04/09 03:42:43;;;;;;;15.58;10.95;;;;;;;2.92;100.00;100171.29;1603294;89;21077;-77
2022/04/09 03:45:10;;;;;;;14.13;11.05;;;;;;;2.99;100.00;100180.83;1603154;89;21134;-77
2022/04/09 03:47:38;;;;;;;19.15;11.28;;;;;;;2.99;100.00;100180.83;1603477;88;22012;-76
2022/04/09 03:50:08;;;;;;;16.12;11.12;;;;;;;3.03;100.00;100179.75;1599624;89;21058;-78
2022/04/09 03:52:38;;;;;;;17.12;10.65;;;;;;;3.05;100.00;100175.36;1603376;89;21536;-79
2022/04/09 03:55:07;;;;;;;15.18;10.43;;;;;;;3.06;100.00;100177.03;1603372;89;21066;-83
2022/04/09 03:57:34;;;;;;;16.95;11.08;;;;;;;3.09;100.00;100174.75;1603593;89;21148;-82
2022/04/09 04:00:01;;;;;;;15.03;11.22;;;;;;;3.15;100.00;100172.70;1603442;89;21273;-77
2022/04/09 04:02:30;;;;;;;13.98;9.73;;;;;;;3.24;100.00;100180.87;1603891;88;21113;-83
2022/04/09 04:05:02;;;;;;;14.18;9.75;;;;;;;3.32;100.00;100181.30;1603368;89;21125;-78
2022/04/09 04:07:30;;;;;;;14.28;10.35;;;;;;;3.39;100.00;100182.64;1599673;89;21117;-77
2022/04/09 04:10:13;;;;;;;15.45;10.00;;;;;;;3.48;100.00;100191.62;1603007;89;21098;-77
2022/04/09 04:12:44;;;;;;;14.47;9.80;;;;;;;3.56;100.00;100205.39;1576248;89;21964;-78
2022/04/09 04:15:13;;;;;;;13.13;10.13;;;;;;;3.66;100.00;100210.41;1603723;89;21043;-77
2022/04/09 04:17:43;;;;;;;15.03;9.95;;;;;;;3.75;100.00;100211.69;1603391;89;21094;-78
2022/04/09 04:20:14;;;;;;;14.03;10.05;;;;;;;3.86;100.00;100213.69;1603939;89;21564;-77
2022/04/09 04:22:44;;;;;;;14.18;8.85;;;;;;;3.99;100.00;100207.42;1577116;89;21740;-77
2022/04/09 04:25:13;;;;;;;11.53;8.55;;;;;;;4.13;100.00;100215.23;1603571;89;21095;-81
2022/04/09 04:27:42;;;;;;;12.07;8.53;;;;;;;4.29;100.00;100222.94;1603626;89;21521;-77
2022/04/09 04:30:11;;;;;;;13.85;8.13;;;;;;;4.45;100.00;100213.91;1604275;88;21109;-77
2022/04/09 04:32:38;;;;;;;11.68;7.47;;;;;;;4.62;100.00;100209.55;1604303;88;21544;-78
2022/04/09 04:35:07;;;;;;;10.82;7.62;;;;;;;4.78;100.00;100214.66;1604422;88;21105;-77
2022/04/09 04:37:42;;;;;;;9.78;7.28;;;;;;;4.94;100.00;100208.16;1603291;89;21130;-79
2022/04/09 04:40:11;;;;;;;9.10;6.83;;;;;;;5.13;100.00;100202.28;1608294;88;20994;-78
2022/04/09 04:42:41;;;;;;;9.05;6.62;;;;;;;5.31;100.00;100199.53;1618392;88;21088;-77
2022/04/09 04:45:10;;;;;;;9.38;7.15;;;;;;;5.47;100.00;100197.69;1608905;88;21081;-82
2022/04/09 04:47:46;;;;;;;11.65;7.70;;;;;;;5.62;100.00;100205.42;1603677;88;21090;-79
2022/04/09 04:50:18;;;;;;;10.75;7.42;;;;;;;5.77;100.00;100208.36;1603203;89;21254;-77
2022/04/09 04:52:47;;;;;;;10.30;6.97;;;;;;;5.95;100.00;100208.16;1599886;88;21050;-77
2022/04/09 04:55:16;;;;;;;7.95;6.72;;;;;;;6.13;100.00;100210.07;1602780;88;21082;-76
2022/04/09 04:57:55;;;;;;;9.65;6.65;;;;;;;6.27;100.00;100210.05;1576108;89;21121;-83
2022/04/09 05:00:24;;;;;;;7.92;6.85;;;;;;;6.43;100.00;100208.59;1601981;88;21022;-79
2022/04/09 05:02:55;;;;;;;13.30;7.03;;;;;;;6.59;100.00;100205.86;1603220;88;21582;-78
2022/04/09 05:05:25;;;;;;;8.20;5.75;;;;;;;6.76;100.00;100206.52;1576588;89;21081;-77
2022/04/09 05:10:37;;;;;;;9.58;8.58;;;;;;;7.10;100.00;100211.58;1842501;77;21721;-78
2022/04/09 05:13:05;;;;;;;7.67;6.65;;;;;;;7.23;100.00;100219.80;1820952;78;21559;-76
2022/04/09 05:15:34;;;;;;;9.20;5.47;;;;;;;7.39;100.00;100220.91;1820678;78;21917;-77
2022/04/09 05:18:03;;;;;;;7.40;6.08;;;;;;;7.53;100.00;100220.78;1820964;78;21041;-84
2022/04/09 05:20:32;;;;;;;10.95;6.20;;;;;;;7.68;100.00;100212.43;1821229;78;21021;-77
2022/04/09 05:23:02;;;;;;;6.25;5.08;;;;;;;7.85;100.00;100221.61;1819775;78;21140;-76
2022/04/09 05:25:31;;;;;;;6.50;5.40;;;;;;;8.00;100.00;100224.05;1821081;78;21029;-77
2022/04/09 05:28:08;;;;;;;6.80;4.97;;;;;;;8.15;100.00;100216.96;1821023;78;21166;-82
2022/04/09 05:30:37;;;;;;;5.87;4.75;;;;;;;8.30;100.00;100209.38;1815445;78;20943;-77
2022/04/09 05:33:05;;;;;;;5.97;4.65;;;;;;;8.46;100.00;100201.30;1821059;78;21009;-76
2022/04/09 05:35:32;;;;;;;5.72;4.55;;;;;;;8.60;100.00;100195.62;1821144;78;20998;-80
2022/04/09 05:38:00;;;;;;;7.47;5.08;;;;;;;8.73;100.00;100196.84;1821089;78;21018;-82
2022/04/09 05:40:30;;;;;;;5.83;4.90;;;;;;;8.88;100.00;100190.95;1820153;78;21401;-82
2022/04/09 05:42:59;;;;;;;5.75;4.55;;;;;;;9.02;100.00;100179.54;1819251;78;21278;-77
2022/04/09 05:45:28;;;;;;;6.45;4.25;;;;;;;9.18;100.00;100181.78;1820668;78;20950;-78
2022/04/09 05:47:55;;;;;;;7.42;4.75;;;;;;;9.33;100.00;100178.05;1821190;78;21582;-77
2022/04/09 05:50:24;;;;;;;5.75;4.42;;;;;;;9.47;100.00;100183.45;1814251;78;21088;-78
2022/04/09 05:52:54;;;;;;;4.75;4.03;;;;;;;9.60;100.00;100178.12;1797905;78;21018;-77
2022/04/09 05:55:21;;;;;;;7.70;4.20;;;;;;;9.75;100.00;100180.02;1788945;78;21060;-76
2022/04/09 05:57:50;;;;;;;5.28;4.40;;;;;;;9.89;100.00;100167.23;1794731;78;21544;-75
2022/04/09 06:00:19;;;;;;;6.05;4.03;;;;;;;10.03;100.00;100172.15;1798364;78;21080;-78
2022/04/09 06:02:49;;;;;;;6.70;3.87;;;;;;;10.18;100.00;100173.98;1788160;78;21036;-82
2022/04/09 06:05:18;;;;;;;4.45;3.98;;;;;;;10.35;100.00;100176.53;1796516;78;21250;-83
2022/04/09 06:07:46;;;;;;;4.62;3.80;;;;;;;10.51;100.00;100177.42;1803686;78;21548;-79
2022/04/09 06:10:14;;;;;;;4.08;3.22;;;;;;;10.67;100.00;100183.52;1791152;78;21455;-81
2022/04/09 06:12:43;;;;;;;4.40;3.22;;;;;;;10.82;100.00;100184.50;1797132;78;21042;-77
2022/04/09 06:15:13;;;;;;;4.15;3.12;;;;;;;10.96;100.00;100186.77;1789841;78;21037;-76
2022/04/09 06:17:43;;;;;;;4.87;3.75;;;;;;;11.10;100.00;100184.78;1791891;78;21169;-78
2022/04/09 06:20:11;;;;;;;4.78;3.60;;;;;;;11.26;100.00;100184.32;1801482;78;21006;-77
2022/04/09 06:22:40;;;;;;;4.78;3.20;;;;;;;11.43;100.00;100177.20;1796646;78;21037;-76
2022/04/09 06:25:09;;;;;;;4.97;3.35;;;;;;;11.58;100.00;100175.52;1796092;78;21560;-78
2022/04/09 06:27:39;;;;;;;4.83;3.60;;;;;;;11.70;100.00;100167.11;1801084;78;21053;-77
2022/04/09 06:30:10;;;;;;;4.53;3.62;;;;;;;11.82;100.00;100161.66;1794129;78;21751;-81
2022/04/09 06:32:38;;;;;;;4.78;3.47;;;;;;;11.97;100.00;100156.07;1789678;78;21129;-81
2022/04/09 06:35:10;;;;;;;5.70;3.65;;;;;;;12.10;100.00;100152.70;1788008;80;21606;-85
2022/04/09 06:37:38;;;;;;;4.50;4.05;;;;;;;12.24;100.00;100142.84;1788601;80;20988;-76
2022/04/09 06:40:10;;;;;;;3.72;3.40;;;;;;;12.37;100.00;100136.03;1788758;79;21496;-78
2022/04/09 06:42:42;;;;;;;5.75;3.37;;;;;;;12.48;100.00;100158.55;1753239;80;21034;-76
2022/04/09 06:45:15;;;;;;;4.67;3.50;;;;;;;12.60;100.00;100151.74;1782196;80;21632;-83
2022/04/09 06:48:03;;;;;;;6.65;3.72;;;;;;;12.75;100.00;100152.60;1707496;83;21164;-84
2022/04/09 06:50:32;;;;;;;4.92;3.52;;;;;;;12.91;100.00;100154.61;1707201;83;21078;-78
2022/04/09 06:52:59;;;;;;;5.97;3.55;;;;;;;13.02;100.00;100153.64;1737801;80;21107;-77
2022/04/09 06:55:28;;;;;;;4.37;3.12;;;;;;;13.08;100.00;100157.80;1783058;80;21113;-78
2022/04/09 06:58:03;;;;;;;4.22;3.10;;;;;;;13.12;100.00;100160.14;1788235;80;21047;-77
2022/04/09 07:00:33;;;;;;;3.80;2.50;;;;;;;13.15;100.00;100150.69;1741707;80;21039;-76
2022/04/09 07:03:01;;;;;;;2.37;1.90;;;;;;;13.18;100.00;100146.48;1819271;78;21554;-76
2022/04/09 07:05:29;;;;;;;4.35;1.80;;;;;;;13.24;100.00;100139.37;1816655;78;21041;-78
2022/04/09 07:07:56;;;;;;;4.60;2.33;;;;;;;13.32;100.00;100134.73;1792856;78;21189;-78
2022/04/09 07:10:24;;;;;;;4.33;2.40;;;;;;;13.46;100.00;100130.85;1781811;79;21035;-83
2022/04/09 07:12:51;;;;;;;9.85;2.70;;;;;;;13.64;100.00;100130.88;1744341;82;21030;-82
2022/04/09 07:15:19;;;;;;;6.33;2.52;;;;;;;13.80;100.00;100126.28;1744195;82;21487;-78
2022/04/09 07:17:48;;;;;;;6.83;2.30;;;;;;;13.93;100.00;100126.77;1744025;81;21824;-83
2022/04/09 07:20:15;;;;;;;5.05;2.37;;;;;;;14.04;100.00;100133.06;1744072;82;21632;-85
2022/04/09 07:22:45;;;;;;;4.95;1.90;;;;;;;14.15;100.00;100140.37;1767652;81;21576;-78
2022/04/09 07:25:16;;;;;;;5.87;2.35;;;;;;;14.25;100.00;100147.66;1744734;82;21129;-76
2022/04/09 07:27:45;;;;;;;4.90;2.40;;;;;;;14.34;100.00;100145.42;1744106;81;21066;-76
2022/04/09 07:30:20;;;;;;;5.20;2.33;;;;;;;14.44;100.00;100136.19;1775091;78;21124;-78
2022/04/09 07:32:49;;;;;;;2.58;1.92;;;;;;;14.54;100.00;100137.40;1811248;79;21963;-82
2022/04/09 07:35:16;;;;;;;2.67;1.85;;;;;;;14.67;100.00;100140.95;1788309;80;21688;-79
2022/04/09 07:37:49;;;;;;;2.35;1.75;;;;;;;14.78;100.00;100145.92;1812359;79;21488;-77
2022/04/09 07:40:19;;;;;;;2.87;1.67;;;;;;;14.88;100.00;100145.00;1788604;79;21020;-77
2022/04/09 07:42:47;;;;;;;4.28;1.82;;;;;;;14.97;100.00;100146.70;1811860;79;21060;-78
2022/04/09 07:45:15;;;;;;;3.50;1.75;;;;;;;15.04;100.00;100146.41;1788023;80;21138;-77
2022/04/09 07:47:45;;;;;;;1.95;1.70;;;;;;;15.13;100.00;100153.84;1811257;79;21464;-77
2022/04/09 07:50:12;;;;;;;1.90;1.40;;;;;;;15.21;100.00;100164.38;1788455;79;21006;-77
2022/04/09 07:52:45;;;;;;;2.67;1.60;;;;;;;15.25;97.35;100154.39;1812072;79;21503;-77
2022/04/09 07:55:16;;;;;;;3.08;1.80;;;;;;;15.28;100.00;100153.59;1788963;78;21190;-82
2022/04/09 07:57:46;;;;;;;;;;;;;;;15.38;97.12;100163.95;1780499;78;21895;-77
2022/04/09 08:00:16;;;;;;;3.62;1.50;;;;;;;15.46;97.29;100157.42;1789026;77;20188;-77
2022/04/09 08:02:43;;;;;;;2.90;1.50;;;;;;;15.55;92.06;100162.19;1807814;77;21025;-76
2022/04/09 08:05:11;;;;;;;2.33;1.27;;;;;;;15.70;92.08;100165.55;1791559;77;21576;-77
2022/04/09 08:07:41;;;;;;;6.30;1.70;;;;;;;15.83;87.95;100159.80;1802195;77;21053;-79
2022/04/09 08:10:11;;;;;;;11.90;1.90;;;;;;;15.95;87.15;100147.22;1794999;77;21548;-77
2022/04/09 08:12:48;;;;;;;2.98;1.35;;;;;;;16.10;85.87;100141.69;1750446;80;21515;-76
2022/04/09 08:15:14;;;;;;;3.55;1.50;;;;;;;16.27;80.10;100133.78;1769404;80;21105;-78
2022/04/09 08:17:41;;;;;;;4.03;1.50;;;;;;;16.37;75.46;100122.15;1765732;80;21034;-78
2022/04/09 08:20:13;;;;;;;3.92;1.10;;;;;;;16.46;75.63;100116.89;1744967;80;21659;-76
2022/04/09 08:22:41;;;;;;;2.10;1.22;;;;;;;16.57;74.37;100104.70;1755493;80;21201;-76
2022/04/09 08:25:09;;;;;;;2.30;1.25;;;;;;;16.64;72.98;100106.17;1763735;80;20997;-76
2022/04/09 08:27:38;;;;;;;2.92;1.67;;;;;;;16.71;73.86;100112.40;1743748;80;21058;-80
2022/04/09 08:30:07;;;;;;;3.12;1.65;;;;;;;16.86;71.01;100117.80;1746258;80;20999;-78
2022/04/09 08:32:35;;;;;;;1.87;1.32;;;;;;;17.00;71.96;100113.17;1749501;80;21041;-76
2022/04/09 08:35:04;;;;;;;7.25;1.60;;;;;;;17.16;72.04;100104.89;1759878;80;21128;-79
2022/04/09 08:37:32;;;;;;;4.45;1.85;;;;;;;17.24;68.23;100112.75;1773339;80;21526;-77
2022/04/09 08:40:00;;;;;;;3.87;1.75;;;;;;;17.18;67.62;100114.25;1771895;80;21034;-83
2022/04/09 08:42:30;;;;;;;3.62;1.60;;;;;;;17.10;69.52;100101.13;1759849;80;21503;-77
2022/04/09 08:45:01;;;;;;;4.12;1.25;;;;;;;17.06;63.83;100106.90;1764307;80;21140;-81
2022/04/09 08:47:29;;;;;;;2.70;1.57;;;;;;;17.04;64.37;100103.13;1764459;80;21160;-79
2022/04/09 08:49:57;;;;;;;1.75;1.30;;;;;;;17.02;65.07;100099.34;1756223;80;21110;-78
2022/04/09 08:52:25;;;;;;;1.60;1.27;;;;;;;17.04;64.22;100091.30;1763542;80;21085;-77
2022/04/09 08:54:52;;;;;;;2.72;1.27;;;;;;;17.12;65.75;100078.59;1722538;82;21024;-77
2022/04/09 08:57:21;;;;;;;1.50;1.40;;;;;;;17.25;64.52;100076.72;1755072;80;21074;-78
2022/04/09 08:59:49;;;;;;;1.50;1.02;;;;;;;17.37;64.11;100076.67;1753438;80;22166;-79
2022/04/09 09:02:16;;;;;;;2.58;1.17;;;;;;;17.49;60.58;100073.95;1752311;80;22197;-78
2022/04/09 09:04:44;;;;;;;3.37;1.40;;;;;;;17.66;62.01;100064.16;1767324;80;21014;-78
2022/04/09 09:07:24;;;;;;;1.35;1.12;;;;;;;17.85;59.75;100071.25;1781634;79;21548;-78
2022/04/09 09:09:53;;;;;;;2.30;0.98;;;;;;;18.00;57.81;100067.87;1766357;79;21081;-80
2022/04/09 09:12:31;;;;;;;1.25;1.10;;;;;;;18.03;55.60;100073.59;1801295;78;21199;-78
2022/04/09 09:15:00;;;;;;;1.57;1.10;;;;;;;18.04;54.98;100073.12;1792043;78;21026;-80
2022/04/09 09:17:29;;;;;;;1.52;1.27;;;;;;;18.11;55.37;100067.45;1800101;78;21029;-88
2022/04/09 09:19:57;;;;;;;2.47;1.40;;;;;;;18.23;53.44;100067.84;1787423;78;21050;-84
2022/04/09 09:22:38;;;;;;;2.62;1.85;;;;;;;18.32;53.45;100077.31;1788513;78;21046;-87
2022/04/09 09:25:10;;;;;;;2.27;2.00;;;;;;;18.34;55.13;100071.85;1792149;78;21014;-80
2022/04/09 09:27:42;;;;;;;2.27;1.77;;;;;;;18.35;56.34;100080.89;1787785;78;20995;-85
2022/04/09 09:30:14;;;;;;;5.08;2.55;;;;;;;18.41;55.60;100070.13;1792277;78;21026;-80
2022/04/09 09:32:44;;;;;;;3.33;1.90;;;;;;;18.41;54.82;100084.15;1789254;78;21089;-79
2022/04/09 09:35:15;;;;;;;2.30;1.50;;;;;;;18.40;55.09;100079.03;1792782;78;21072;-78
2022/04/09 09:37:43;;;;;;;2.17;1.57;;;;;;;18.40;52.82;100085.14;1795357;77;21259;-78
2022/04/09 09:40:12;;;;;;;7.28;1.80;;;;;;;18.43;52.17;100082.64;1798223;77;21038;-79
2022/04/09 09:42:39;;;;;;;2.75;1.55;;;;;;;18.48;51.78;100079.47;1778460;78;21065;-79
2022/04/09 09:45:07;;;;;;;2.50;1.70;;;;;;;18.57;51.28;100077.07;1769506;78;21068;-89
2022/04/09 09:47:35;;;;;;;1.52;1.20;;;;;;;18.72;48.48;100080.53;1769454;78;21062;-82
2022/04/09 09:50:02;;;;;;;9.73;1.60;;;;;;;18.82;46.88;100079.44;1774991;78;21117;-88
2022/04/09 09:52:34;;;;;;;2.25;1.75;;;;;;;18.89;46.81;100069.28;1805285;78;21091;-86
2022/04/09 09:55:10;;;;;;;;;;;;;;;18.89;45.85;100067.95;1803973;78;21539;-82
2022/04/09 09:57:38;;;;;;;3.83;1.57;;;;;;;18.85;47.94;100060.11;1800374;78;20467;-82
2022/04/09 10:00:10;;;;;;;6.50;1.45;;;;;;;18.81;46.92;100064.09;1799203;78;21017;-83
2022/04/09 10:02:40;;;;;;;;;;;;;;;18.69;47.36;100061.10;1795388;78;21450;-83
2022/04/09 10:05:09;;;;;;;4.12;2.02;;;;;;;18.56;48.32;100063.05;1807273;78;20498;-80
2022/04/09 10:07:40;;;;;;;7.65;1.85;;;;;;;18.44;48.12;100060.05;1788104;78;21053;-81
2022/04/09 10:10:09;;;;;;;8.07;2.43;;;;;;;18.38;48.37;100059.97;1800787;78;21048;-82
2022/04/09 10:12:44;;;;;;;6.35;2.62;;;;;;;18.34;49.69;100056.05;1795140;78;21693;-82
2022/04/09 10:15:12;;;;;;;5.97;2.20;;;;;;;18.34;50.53;100057.36;1812657;78;21213;-86
2022/04/09 10:17:40;;;;;;;4.33;1.98;;;;;;;18.35;51.12;100059.00;1791462;78;21051;-87
2022/04/09 10:20:09;;;;;;;4.50;1.70;;;;;;;18.38;50.89;100058.65;1786979;78;21494;-82
2022/04/09 10:22:45;;;;;;;5.97;2.00;;;;;;;18.38;49.30;100054.19;1773146;80;21105;-83
2022/04/09 10:25:15;;;;;;;3.52;1.70;;;;;;;18.39;50.58;100064.22;1786494;78;21074;-82
2022/04/09 10:27:52;;;;;;;3.60;1.42;;;;;;;18.42;49.84;100064.70;1763446;78;21042;-83
2022/04/09 10:30:26;;;;;;;4.15;1.80;;;;;;;18.45;47.33;100067.47;1778914;78;21631;-83
2022/04/09 10:32:59;;;;;;;2.05;1.22;;;;;;;18.48;46.56;100059.19;1780987;78;21083;-83
2022/04/09 10:35:41;;;;;;;2.90;1.40;;;;;;;18.49;45.77;100054.75;1777745;80;21053;-82
2022/04/09 10:38:20;;;;;;;1.98;1.45;;;;;;;18.50;45.37;100057.20;1765579;79;21081;-84
2022/04/09 10:41:04;;;;;;;1.85;1.35;;;;;;;18.50;45.28;100051.92;1809424;78;21338;-89
2022/04/09 10:43:40;;;;;;;7.15;1.37;;;;;;;18.51;44.57;100054.88;1793231;79;21570;-90
2022/04/09 10:46:19;;;;;;;4.50;1.40;;;;;;;18.52;44.76;100045.14;1808366;79;21046;-81
2022/04/09 10:48:44;;;;;;;6.15;1.40;;;;;;;18.50;43.76;100045.33;1804341;79;21577;-83
2022/04/09 10:51:16;;;;;;;2.15;1.60;;;;;;;18.46;44.04;100040.12;1808284;79;20947;-83
2022/04/09 10:53:49;;;;;;;4.60;1.47;;;;;;;18.41;44.27;100038.02;1802944;79;21630;-82
2022/04/09 10:56:31;;;;;;;2.90;1.62;;;;;;;18.41;45.18;100030.59;1776943;79;21056;-81
2022/04/09 10:59:13;;;;;;;4.47;1.50;;;;;;;18.43;44.26;100023.33;1752184;79;21052;-81
2022/04/09 11:01:50;;;;;;;2.80;1.67;;;;;;;18.47;44.39;100021.95;1776395;79;21039;-80
2022/04/09 11:04:37;;;;;;;4.15;1.82;;;;;;;18.53;43.79;100017.30;1783014;79;21145;-81
2022/04/09 11:07:23;;;;;;;2.45;1.50;;;;;;;18.59;43.48;100013.09;1777190;79;21086;-81
2022/04/09 11:10:03;;;;;;;2.30;1.35;;;;;;;18.61;42.76;100000.55;1785751;79;21043;-82
2022/04/09 11:12:40;;;;;;;3.98;1.87;;;;;;;18.66;43.18;100002.64;1777287;80;21513;-82
2022/04/09 11:15:13;;;;;;;8.08;1.62;;;;;;;18.70;43.11;100001.29;1781256;77;21344;-86
2022/04/09 11:17:48;;;;;;;2.70;1.85;;;;;;;18.76;42.59;99997.91;1801173;78;21077;-82
2022/04/09 11:20:26;;;;;;;1.98;1.45;;;;;;;18.80;42.47;99989.94;1770683;80;21881;-82
2022/04/09 11:22:56;;;;;;;8.63;2.25;;;;;;;18.82;42.98;99989.25;1776885;80;21073;-79
2022/04/09 11:25:30;;;;;;;2.55;1.50;;;;;;;18.88;42.00;99987.70;1751093;80;21103;-79
2022/04/09 11:28:18;;;;;;;4.10;1.60;;;;;;;18.90;41.91;99987.83;1777185;79;21146;-82
2022/04/09 11:31:04;;;;;;;4.75;1.60;;;;;;;18.93;42.31;99984.55;1751702;78;21554;-79
2022/04/09 11:33:35;;;;;;;3.15;1.75;;;;;;;18.94;41.75;99986.18;1790672;78;22229;-89
2022/04/09 11:36:05;;;;;;;5.35;3.35;;;;;;;18.95;41.17;99973.31;1785779;80;20981;-89
2022/04/09 11:38:33;;;;;;;4.42;2.40;;;;;;;18.99;42.21;99968.77;1785556;78;21002;-83